Time;durP1;ratioP1;P1;durP2;ratioP2;P2;SDS_P1;SDS_P2;PMS_P1;PMS_P2;Temp;Humidity;BMP_temperature;BMP_pressure;BME280_temperature;BME280_humidity;BME280_pressure;Samples;Min_cycle;Max_cycle;Signal;HPM_P1;HPM_P2
2023/05/21 00:02:03;;;;;;;15.27;13.67;;;16.00;99.90;;;;;;5021727;28;20558;-69
2023/05/21 00:04:30;;;;;;;13.93;12.60;;;15.90;99.90;;;;;;5021840;28;20456;-69
2023/05/21 00:06:57;;;;;;;15.47;12.80;;;15.90;99.90;;;;;;5025484;28;20929;-69
2023/05/21 00:09:23;;;;;;;14.90;12.30;;;15.90;99.90;;;;;;5022872;28;20414;-68
2023/05/21 00:11:49;;;;;;;14.57;13.00;;;15.80;99.90;;;;;;5025365;28;20417;-68
2023/05/21 00:14:15;;;;;;;14.80;13.40;;;15.80;99.90;;;;;;5023350;28;20503;-68
2023/05/21 00:16:40;;;;;;;15.03;13.50;;;15.80;99.90;;;;;;5024925;28;20196;-70
2023/05/21 00:19:06;;;;;;;15.70;13.87;;;15.80;99.90;;;;;;5024970;28;20275;-68
2023/05/21 00:21:32;;;;;;;17.07;14.20;;;15.80;99.90;;;;;;5040813;28;20183;-68
2023/05/21 00:23:58;;;;;;;16.33;14.60;;;15.80;99.90;;;;;;5024856;28;20828;-68
2023/05/21 00:26:24;;;;;;;16.10;13.67;;;15.70;99.90;;;;;;4983385;28;1120407;-69
2023/05/21 00:28:49;;;;;;;16.03;14.07;;;15.70;99.90;;;;;;5025950;28;20501;-69
2023/05/21 00:31:16;;;;;;;16.53;12.47;;;15.60;99.90;;;;;;5024381;28;20183;-67
2023/05/21 00:33:42;;;;;;;15.00;13.60;;;15.60;99.90;;;;;;5025973;28;20311;-68
2023/05/21 00:36:08;;;;;;;15.40;12.23;;;15.60;99.90;;;;;;5025451;28;20431;-68
2023/05/21 00:38:33;;;;;;;14.90;13.40;;;15.60;99.90;;;;;;5023561;28;20425;-69
2023/05/21 00:41:01;;;;;;;14.70;13.37;;;15.50;99.90;;;;;;5025667;28;20442;-69
2023/05/21 00:43:27;;;;;;;13.00;11.73;;;15.50;99.90;;;;;;5024154;28;20591;-68
2023/05/21 00:45:55;;;;;;;14.40;12.90;;;15.40;99.90;;;;;;5025399;28;20411;-68
2023/05/21 00:48:21;;;;;;;16.70;12.87;;;15.40;99.90;;;;;;5024777;28;20199;-68
2023/05/21 00:50:48;;;;;;;14.77;13.10;;;15.40;99.90;;;;;;5025255;28;20476;-69
2023/05/21 00:53:17;;;;;;;17.27;14.67;;;15.30;99.90;;;;;;5025341;28;20423;-68
2023/05/21 00:55:43;;;;;;;18.10;12.93;;;15.30;99.90;;;;;;5016519;28;20418;-68
2023/05/21 00:58:09;;;;;;;15.50;12.37;;;15.30;99.90;;;;;;5025443;28;20434;-69
2023/05/21 01:00:36;;;;;;;14.77;13.20;;;15.30;99.90;;;;;;5023931;28;20187;-71
2023/05/21 01:03:03;;;;;;;15.90;14.30;;;15.20;99.90;;;;;;5025235;28;20450;-69
2023/05/21 01:05:29;;;;;;;15.33;13.40;;;15.20;99.90;;;;;;5015454;28;20443;-68
2023/05/21 01:07:56;;;;;;;15.73;14.23;;;15.20;99.90;;;;;;5017792;28;20504;-68
2023/05/21 01:10:23;;;;;;;14.97;12.70;;;15.20;99.90;;;;;;5024541;28;20411;-68
2023/05/21 01:12:49;;;;;;;14.23;12.77;;;15.10;99.90;;;;;;5024464;28;20517;-69
2023/05/21 01:15:15;;;;;;;14.53;13.03;;;15.10;99.90;;;;;;5024748;28;20437;-68
2023/05/21 01:17:44;;;;;;;16.47;13.70;;;15.10;99.90;;;;;;5023708;28;20442;-68
2023/05/21 01:20:10;;;;;;;16.27;12.83;;;15.10;99.90;;;;;;5025074;28;20430;-68
2023/05/21 01:22:46;;;;;;;13.93;12.40;;;15.10;99.90;;;;;;5024383;28;20541;-68
2023/05/21 01:25:12;;;;;;;14.50;12.77;;;15.10;99.90;;;;;;5024787;28;20765;-68
2023/05/21 01:27:37;;;;;;;15.50;13.80;;;15.10;99.90;;;;;;5021193;28;20463;-69
2023/05/21 01:30:03;;;;;;;15.60;13.30;;;15.00;99.90;;;;;;5026406;28;20176;-68
2023/05/21 01:32:37;;;;;;;18.70;14.80;;;15.00;99.90;;;;;;5022329;28;20176;-69
2023/05/21 01:35:25;;;;;;;13.73;12.43;;;15.00;99.90;;;;;;5013210;28;20435;-68
2023/05/21 01:37:54;;;;;;;21.60;16.03;;;15.00;99.90;;;;;;5009702;28;20877;-69
2023/05/21 01:40:45;;;;;;;17.13;15.33;;;15.00;99.90;;;;;;5022014;28;20786;-68
2023/05/21 01:43:12;;;;;;;16.53;14.83;;;15.00;99.90;;;;;;5018437;28;20462;-69
2023/05/21 01:45:40;;;;;;;16.57;14.77;;;15.00;99.90;;;;;;5023320;28;20407;-69
2023/05/21 01:48:07;;;;;;;17.80;15.40;;;15.00;99.90;;;;;;5021831;28;20434;-70
2023/05/21 01:50:34;;;;;;;17.87;14.47;;;15.00;99.90;;;;;;5023862;28;20407;-68
2023/05/21 01:53:02;;;;;;;17.83;16.00;;;15.00;99.90;;;;;;5024378;28;20464;-68
2023/05/21 01:55:30;;;;;;;17.00;15.40;;;15.10;99.90;;;;;;5015848;28;20418;-69
2023/05/21 01:57:56;;;;;;;17.17;15.37;;;15.10;99.90;;;;;;5023721;28;20850;-69
2023/05/21 02:00:24;;;;;;;20.67;14.57;;;15.10;99.90;;;;;;5022829;28;20911;-68
2023/05/21 02:02:50;;;;;;;16.97;15.27;;;15.00;99.90;;;;;;5023941;28;20531;-69
2023/05/21 02:05:16;;;;;;;18.80;15.53;;;15.10;99.90;;;;;;5023193;28;20825;-69
2023/05/21 02:07:44;;;;;;;16.97;15.10;;;15.10;99.90;;;;;;5024158;28;20431;-68
2023/05/21 02:10:10;;;;;;;16.90;14.67;;;15.10;99.90;;;;;;5022018;28;20962;-66
2023/05/21 02:12:37;;;;;;;19.83;15.97;;;15.00;99.90;;;;;;5006830;28;20442;-69
2023/05/21 02:15:03;;;;;;;17.20;15.40;;;15.00;99.90;;;;;;5013677;28;20546;-69
2023/05/21 02:17:32;;;;;;;18.43;16.50;;;15.00;99.90;;;;;;5025385;28;20443;-69
2023/05/21 02:20:10;;;;;;;22.50;16.33;;;15.00;99.90;;;;;;5023202;28;20457;-68
2023/05/21 02:22:39;;;;;;;19.10;16.53;;;14.90;99.90;;;;;;5007833;28;20938;-68
2023/05/21 02:25:07;;;;;;;18.70;15.63;;;14.90;99.90;;;;;;4997096;28;20468;-68
2023/05/21 02:27:36;;;;;;;17.67;15.80;;;14.90;99.90;;;;;;5006669;28;20466;-68
2023/05/21 02:30:13;;;;;;;21.20;15.90;;;14.90;99.90;;;;;;4999929;28;20448;-68
2023/05/21 02:32:41;;;;;;;19.70;17.00;;;14.80;99.90;;;;;;5005092;28;20423;-68
2023/05/21 02:35:08;;;;;;;19.63;17.53;;;14.80;99.90;;;;;;5002386;28;20416;-68
2023/05/21 02:37:34;;;;;;;20.50;17.17;;;14.80;99.90;;;;;;5014106;28;20441;-68
2023/05/21 02:40:02;;;;;;;17.83;15.97;;;14.80;99.90;;;;;;4999004;28;20443;-68
2023/05/21 02:42:28;;;;;;;23.13;17.80;;;14.80;99.90;;;;;;5005265;28;20553;-68
2023/05/21 02:44:54;;;;;;;19.13;17.10;;;14.80;99.90;;;;;;5002913;28;20507;-69
2023/05/21 02:47:21;;;;;;;21.60;16.53;;;14.80;99.90;;;;;;5001872;28;20462;-69
2023/05/21 02:49:49;;;;;;;20.43;18.17;;;14.80;99.90;;;;;;5013733;28;20247;-69
2023/05/21 02:52:17;;;;;;;22.20;18.93;;;14.80;99.90;;;;;;5005227;28;20441;-69
2023/05/21 02:54:43;;;;;;;21.03;18.87;;;14.80;99.90;;;;;;5005465;28;20416;-69
2023/05/21 02:57:09;;;;;;;19.83;17.80;;;14.80;99.90;;;;;;4995434;28;20493;-69
2023/05/21 02:59:34;;;;;;;19.77;17.67;;;14.80;99.90;;;;;;5009636;28;20506;-68
2023/05/21 03:02:00;;;;;;;20.13;18.07;;;14.80;99.90;;;;;;5000896;28;20200;-69
2023/05/21 03:04:27;;;;;;;19.53;17.43;;;14.80;99.90;;;;;;5000711;28;20177;-69
2023/05/21 03:06:53;;;;;;;22.30;17.73;;;14.70;99.90;;;;;;5007605;28;20195;-69
2023/05/21 03:09:20;;;;;;;25.33;19.07;;;14.80;99.90;;;;;;4997851;28;20439;-69
2023/05/21 03:11:46;;;;;;;20.00;18.00;;;14.80;99.90;;;;;;5002655;28;20891;-68
2023/05/21 03:14:13;;;;;;;19.13;17.13;;;14.80;99.90;;;;;;4996898;28;20438;-69
2023/05/21 03:16:40;;;;;;;21.50;19.30;;;14.80;99.90;;;;;;5002649;28;20493;-68
2023/05/21 03:19:07;;;;;;;22.33;20.17;;;14.80;99.90;;;;;;5002325;28;20423;-69
2023/05/21 03:21:32;;;;;;;20.93;17.60;;;14.80;99.90;;;;;;5012977;28;20434;-69
2023/05/21 03:23:59;;;;;;;22.40;19.77;;;14.80;99.90;;;;;;4996237;28;20438;-68
2023/05/21 03:26:28;;;;;;;23.50;19.03;;;14.80;99.90;;;;;;5009996;28;20455;-68
2023/05/21 03:28:55;;;;;;;23.30;19.00;;;14.90;99.90;;;;;;5013328;28;20435;-68
2023/05/21 03:31:22;;;;;;;23.47;19.70;;;14.80;99.90;;;;;;5000306;28;20504;-68
2023/05/21 03:33:47;;;;;;;19.27;17.40;;;14.90;99.90;;;;;;5006915;28;20421;-69
2023/05/21 03:36:13;;;;;;;23.00;20.50;;;14.90;99.90;;;;;;4999147;28;20451;-69
2023/05/21 03:38:39;;;;;;;21.70;19.37;;;14.90;99.90;;;;;;5008465;28;20596;-69
2023/05/21 03:41:07;;;;;;;20.27;18.27;;;15.00;99.90;;;;;;4999320;28;20257;-68
2023/05/21 03:43:32;;;;;;;26.27;21.30;;;15.00;99.90;;;;;;5010701;28;20200;-68
2023/05/21 03:45:58;;;;;;;24.20;20.33;;;15.00;99.90;;;;;;5000506;28;20424;-68
2023/05/21 03:48:24;;;;;;;21.90;18.47;;;15.10;99.90;;;;;;4999805;28;20581;-68
2023/05/21 03:50:50;;;;;;;20.67;18.40;;;15.10;99.90;;;;;;5011955;28;20251;-68
2023/05/21 03:53:15;;;;;;;22.67;20.40;;;15.20;99.90;;;;;;5004038;28;20230;-67
2023/05/21 03:55:41;;;;;;;23.50;19.03;;;15.20;99.90;;;;;;5005277;28;20415;-67
2023/05/21 03:58:08;;;;;;;21.10;17.20;;;15.30;99.90;;;;;;5006716;28;20215;-67
2023/05/21 04:00:36;;;;;;;20.17;18.17;;;15.30;99.90;;;;;;5010856;28;20271;-68
2023/05/21 04:03:02;;;;;;;22.60;18.60;;;15.40;99.90;;;;;;5011700;28;20821;-67
2023/05/21 04:05:27;;;;;;;21.07;18.97;;;15.40;99.90;;;;;;5005499;28;20420;-69
2023/05/21 04:07:53;;;;;;;20.57;18.50;;;15.50;99.90;;;;;;5016020;28;20784;-68
2023/05/21 04:10:19;;;;;;;23.37;20.60;;;15.50;99.90;;;;;;5001978;28;20237;-69
2023/05/21 04:12:45;;;;;;;21.97;19.77;;;15.50;99.90;;;;;;5002106;28;20176;-69
2023/05/21 04:15:11;;;;;;;30.17;20.13;;;15.60;99.90;;;;;;5007244;28;20177;-68
2023/05/21 04:17:37;;;;;;;24.43;18.77;;;15.70;99.90;;;;;;5009168;28;20572;-68
2023/05/21 04:20:03;;;;;;;21.60;18.27;;;15.70;99.90;;;;;;5006154;28;20420;-69
2023/05/21 04:22:29;;;;;;;19.60;17.60;;;15.80;99.90;;;;;;4996194;28;20471;-69
2023/05/21 04:24:55;;;;;;;24.37;19.30;;;15.90;99.90;;;;;;5006260;28;20916;-68
2023/05/21 04:27:24;;;;;;;23.73;19.83;;;16.00;99.90;;;;;;5001446;28;20204;-68
2023/05/21 04:29:49;;;;;;;26.53;16.90;;;16.00;99.90;;;;;;5004406;28;20211;-69
2023/05/21 04:32:16;;;;;;;21.20;18.47;;;16.10;99.90;;;;;;5007536;28;20479;-68
2023/05/21 04:34:43;;;;;;;19.17;17.13;;;16.20;99.90;;;;;;5001992;28;20222;-68
2023/05/21 04:37:09;;;;;;;21.90;19.00;;;16.40;99.90;;;;;;5008498;28;20446;-71
2023/05/21 04:39:35;;;;;;;19.80;17.27;;;16.50;99.90;;;;;;5018105;28;20433;-68
2023/05/21 04:42:01;;;;;;;20.67;18.17;;;16.60;99.90;;;;;;4997167;28;20465;-70
2023/05/21 04:44:28;;;;;;;19.73;17.70;;;16.80;99.90;;;;;;5004401;28;20476;-68
2023/05/21 04:46:53;;;;;;;19.93;17.80;;;16.70;99.90;;;;;;5001013;28;20437;-71
2023/05/21 04:49:20;;;;;;;20.13;18.00;;;16.80;99.90;;;;;;5015460;28;20503;-68
2023/05/21 04:51:46;;;;;;;19.23;17.47;;;17.00;99.90;;;;;;5013326;28;20311;-69
2023/05/21 04:54:11;;;;;;;22.03;19.80;;;17.20;99.90;;;;;;5003816;28;20966;-68
2023/05/21 04:56:37;;;;;;;18.47;16.40;;;17.30;99.90;;;;;;5003812;28;20231;-69
2023/05/21 04:59:03;;;;;;;18.47;16.60;;;17.80;99.90;;;;;;5000568;28;20203;-69
2023/05/21 05:01:31;;;;;;;17.10;14.87;;;18.10;99.90;;;;;;5001955;28;20265;-69
2023/05/21 05:03:56;;;;;;;25.07;15.27;;;18.40;99.90;;;;;;5005654;28;20474;-69
2023/05/21 05:06:24;;;;;;;16.67;14.83;;;18.70;99.90;;;;;;5007832;28;20473;-70
2023/05/21 05:08:50;;;;;;;14.77;13.20;;;18.90;99.90;;;;;;5004901;28;20171;-68
2023/05/21 05:11:16;;;;;;;15.30;13.80;;;19.00;99.90;;;;;;5002819;28;20778;-70
2023/05/21 05:13:41;;;;;;;14.43;13.03;;;19.10;99.90;;;;;;4996306;28;20210;-69
2023/05/21 05:16:07;;;;;;;15.80;14.20;;;19.30;99.90;;;;;;5005990;28;20598;-68
2023/05/21 05:18:33;;;;;;;16.73;15.03;;;19.40;99.90;;;;;;5008474;28;20726;-70
2023/05/21 05:21:00;;;;;;;15.10;13.60;;;19.50;99.90;;;;;;5006732;28;20178;-69
2023/05/21 05:23:25;;;;;;;15.97;14.37;;;19.70;99.90;;;;;;5007631;28;20963;-69
2023/05/21 05:25:51;;;;;;;18.10;14.50;;;19.60;99.90;;;;;;5009186;28;20450;-69
2023/05/21 05:28:16;;;;;;;15.07;13.60;;;19.70;99.90;;;;;;5003424;28;20232;-69
2023/05/21 05:30:42;;;;;;;17.20;15.30;;;19.60;99.90;;;;;;4997236;28;20658;-69
2023/05/21 05:33:08;;;;;;;16.80;15.03;;;19.60;99.90;;;;;;4999991;28;20232;-68
2023/05/21 05:35:33;;;;;;;14.60;13.20;;;19.80;99.90;;;;;;5009715;28;20705;-69
2023/05/21 05:37:59;;;;;;;15.87;14.27;;;20.00;99.90;;;;;;5012425;28;20284;-70
2023/05/21 05:40:25;;;;;;;16.30;14.70;;;20.00;99.90;;;;;;5010979;28;20185;-69
2023/05/21 05:42:51;;;;;;;16.30;14.20;;;20.10;99.90;;;;;;5008166;28;20678;-68
2023/05/21 05:45:18;;;;;;;16.43;14.83;;;20.10;99.90;;;;;;5001785;28;20185;-67
2023/05/21 05:47:43;;;;;;;16.77;15.07;;;20.20;99.90;;;;;;4999250;28;20455;-68
2023/05/21 05:50:09;;;;;;;15.90;13.87;;;20.50;99.90;;;;;;4995913;28;20945;-67
2023/05/21 05:52:35;;;;;;;15.90;14.13;;;20.70;99.90;;;;;;5026740;28;20243;-69
2023/05/21 05:55:01;;;;;;;16.00;14.33;;;20.80;99.90;;;;;;5007235;28;20528;-69
2023/05/21 05:57:27;;;;;;;18.10;15.17;;;20.80;99.90;;;;;;5008185;28;20202;-68
2023/05/21 05:59:52;;;;;;;15.27;13.87;;;20.70;99.90;;;;;;4997145;28;20184;-70
2023/05/21 06:02:18;;;;;;;14.60;13.07;;;20.50;99.90;;;;;;4995796;28;20657;-73
2023/05/21 06:04:43;;;;;;;15.43;13.97;;;20.50;99.90;;;;;;5016510;28;20212;-71
2023/05/21 06:07:10;;;;;;;15.67;14.20;;;20.60;99.90;;;;;;5001773;28;20194;-70
2023/05/21 06:09:37;;;;;;;15.40;13.37;;;20.70;99.90;;;;;;5016649;28;20177;-68
2023/05/21 06:12:06;;;;;;;14.70;13.37;;;20.60;99.90;;;;;;5009906;28;20774;-70
2023/05/21 06:14:32;;;;;;;15.73;13.87;;;20.60;99.90;;;;;;4999305;28;20425;-67
2023/05/21 06:16:57;;;;;;;16.00;14.50;;;20.60;99.90;;;;;;5000450;28;20424;-68
2023/05/21 06:19:23;;;;;;;14.47;13.00;;;20.40;99.90;;;;;;5000877;28;20659;-69
2023/05/21 06:21:49;;;;;;;14.10;12.70;;;20.60;99.90;;;;;;5004673;28;20177;-69
2023/05/21 06:24:15;;;;;;;17.10;14.00;;;20.50;99.90;;;;;;4999996;28;20170;-68
2023/05/21 06:26:41;;;;;;;17.20;15.50;;;20.20;99.90;;;;;;5013820;28;20457;-69
2023/05/21 06:29:06;;;;;;;17.07;15.47;;;20.30;99.90;;;;;;4997453;28;20173;-68
2023/05/21 06:31:32;;;;;;;18.33;14.97;;;20.50;99.90;;;;;;4995759;28;20412;-69
2023/05/21 06:33:59;;;;;;;16.50;14.87;;;20.20;99.90;;;;;;5003654;28;20199;-70
2023/05/21 06:36:28;;;;;;;14.53;13.20;;;20.10;99.90;;;;;;5001953;28;20658;-69
2023/05/21 06:38:55;;;;;;;16.60;15.00;;;20.30;99.90;;;;;;5001034;28;21017;-69
2023/05/21 06:41:21;;;;;;;15.27;13.43;;;20.20;99.90;;;;;;5004599;28;20401;-69
2023/05/21 06:43:47;;;;;;;14.70;13.30;;;20.30;99.90;;;;;;5007675;28;20510;-71
2023/05/21 06:46:13;;;;;;;15.13;13.60;;;20.30;99.90;;;;;;5003818;28;20406;-69
2023/05/21 06:48:39;;;;;;;15.47;13.13;;;20.30;99.90;;;;;;4996654;28;20170;-69
2023/05/21 06:51:04;;;;;;;15.73;13.83;;;20.40;99.90;;;;;;5001520;28;20171;-69
2023/05/21 06:53:30;;;;;;;14.40;12.40;;;20.40;99.90;;;;;;5006223;28;20181;-68
2023/05/21 06:55:56;;;;;;;13.63;12.23;;;20.40;99.90;;;;;;5004066;28;20263;-69
2023/05/21 06:58:21;;;;;;;15.10;12.53;;;20.50;99.90;;;;;;5005534;28;20200;-69
2023/05/21 07:00:47;;;;;;;16.80;14.43;;;20.50;99.90;;;;;;5002065;28;20476;-71
2023/05/21 07:03:13;;;;;;;13.30;11.90;;;20.70;99.90;;;;;;4999169;28;20200;-69
2023/05/21 07:05:39;;;;;;;12.40;11.20;;;20.90;99.90;;;;;;4996597;28;20411;-69
2023/05/21 07:08:05;;;;;;;15.63;13.63;;;21.00;99.90;;;;;;5000408;28;20460;-70
2023/05/21 07:10:31;;;;;;;15.20;13.60;;;21.10;99.90;;;;;;5003044;28;20176;-70
2023/05/21 07:12:56;;;;;;;13.33;12.03;;;21.40;99.90;;;;;;5006268;28;20409;-70
2023/05/21 07:15:22;;;;;;;12.80;11.50;;;21.50;99.90;;;;;;5003660;28;20226;-69
2023/05/21 07:17:47;;;;;;;16.00;12.70;;;21.40;99.90;;;;;;4997120;28;20192;-69
2023/05/21 07:20:13;;;;;;;13.27;11.90;;;21.90;99.90;;;;;;4997554;28;20183;-69
2023/05/21 07:22:40;;;;;;;12.63;11.33;;;22.30;99.90;;;;;;5003060;28;20210;-69
2023/05/21 07:25:06;;;;;;;12.83;10.93;;;23.00;99.90;;;;;;5000995;28;20183;-69
2023/05/21 07:27:32;;;;;;;12.03;10.93;;;23.80;99.90;;;;;;5009295;28;20447;-68
2023/05/21 07:29:57;;;;;;;12.33;11.13;;;24.40;99.90;;;;;;5015826;28;20420;-68
2023/05/21 07:32:23;;;;;;;11.57;10.37;;;24.80;99.90;;;;;;4997045;28;20259;-69
2023/05/21 07:34:48;;;;;;;10.57;9.67;;;25.00;99.90;;;;;;5001900;28;20187;-69
2023/05/21 07:37:14;;;;;;;12.80;11.60;;;25.70;99.90;;;;;;5005193;28;20284;-68
2023/05/21 07:39:40;;;;;;;10.97;9.87;;;26.00;99.90;;;;;;5009315;28;20183;-68
2023/05/21 07:42:05;;;;;;;11.30;9.97;;;26.40;99.90;;;;;;5004138;28;20192;-72
2023/05/21 07:44:31;;;;;;;10.90;9.80;;;26.80;99.90;;;;;;5011495;28;20260;-69
2023/05/21 07:46:57;;;;;;;10.30;9.23;;;26.70;99.90;;;;;;5002721;28;20687;-70
2023/05/21 07:49:22;;;;;;;10.60;9.60;;;26.50;99.90;;;;;;5006704;28;20234;-69
2023/05/21 07:51:48;;;;;;;10.17;9.37;;;26.30;99.90;;;;;;4998835;28;20223;-69
2023/05/21 07:54:14;;;;;;;10.83;9.83;;;26.80;99.90;;;;;;4997072;28;20257;-69
2023/05/21 07:56:40;;;;;;;10.77;9.67;;;27.70;99.90;;;;;;5007397;28;20704;-69
2023/05/21 07:59:05;;;;;;;10.60;9.60;;;27.70;99.90;;;;;;5002902;28;20674;-72
2023/05/21 08:01:32;;;;;;;10.10;8.73;;;27.60;99.90;;;;;;5014032;28;20177;-69
2023/05/21 08:04:00;;;;;;;9.83;8.93;;;27.60;99.90;;;;;;4998601;28;20284;-69
2023/05/21 08:06:26;;;;;;;10.33;9.27;;;28.00;99.90;;;;;;5008905;28;20427;-74
2023/05/21 08:08:53;;;;;;;9.00;8.27;;;28.00;99.90;;;;;;5002745;28;20408;-71
2023/05/21 08:11:20;;;;;;;10.40;9.50;;;27.70;99.90;;;;;;5002183;28;20588;-70
2023/05/21 08:13:46;;;;;;;10.40;9.33;;;27.80;99.90;;;;;;5013013;28;20414;-74
2023/05/21 08:16:11;;;;;;;9.83;8.93;;;28.10;99.90;;;;;;5002842;28;20832;-69
2023/05/21 08:18:37;;;;;;;10.57;9.67;;;28.60;99.90;;;;;;4992339;28;20185;-69
2023/05/21 08:21:03;;;;;;;9.20;8.40;;;28.30;99.90;;;;;;5001904;28;20195;-69
2023/05/21 08:23:28;;;;;;;10.03;8.80;;;28.20;99.90;;;;;;5002469;28;20208;-72
2023/05/21 08:25:54;;;;;;;14.67;9.13;;;27.80;99.90;;;;;;5003984;28;20412;-69
2023/05/21 08:28:22;;;;;;;11.97;8.57;;;27.30;99.90;;;;;;5014701;28;20345;-65
2023/05/21 08:30:48;;;;;;;9.57;8.77;;;27.80;99.90;;;;;;5013570;28;20214;-69
2023/05/21 08:33:13;;;;;;;9.67;8.77;;;28.10;99.90;;;;;;5003961;28;20495;-71
2023/05/21 08:35:39;;;;;;;9.70;8.80;;;28.00;99.90;;;;;;5002030;28;20597;-73
2023/05/21 08:38:05;;;;;;;9.83;8.83;;;27.70;99.90;;;;;;5001991;28;20228;-73
2023/05/21 08:40:30;;;;;;;9.20;8.40;;;27.60;99.90;;;;;;5018954;28;20198;-69
2023/05/21 08:42:56;;;;;;;8.73;7.83;;;27.20;99.90;;;;;;5002399;28;20204;-70
2023/05/21 08:45:26;;;;;;;8.93;8.00;;;27.40;99.90;;;;;;5012277;28;20648;-70
2023/05/21 08:47:56;;;;;;;9.53;8.73;;;27.40;99.90;;;;;;5007125;28;20205;-68
2023/05/21 08:50:25;;;;;;;9.97;9.10;;;27.00;99.90;;;;;;5002335;28;20493;-69
2023/05/21 08:52:51;;;;;;;8.97;8.17;;;26.80;99.90;;;;;;4998225;28;20969;-68
2023/05/21 08:55:17;;;;;;;11.13;8.60;;;27.60;99.90;;;;;;5002426;28;20407;-68
2023/05/21 08:57:43;;;;;;;8.90;8.10;;;28.30;99.90;;;;;;5004074;28;20433;-68
2023/05/21 09:00:10;;;;;;;8.67;8.03;;;28.50;99.90;;;;;;5011421;28;20177;-70
2023/05/21 09:02:39;;;;;;;10.87;8.57;;;28.50;99.90;;;;;;5019382;28;20573;-69
2023/05/21 09:05:07;;;;;;;9.40;8.57;;;28.20;99.90;;;;;;5007570;28;20454;-69
2023/05/21 09:07:41;;;;;;;8.77;7.97;;;28.00;99.90;;;;;;5021957;28;20470;-69
2023/05/21 09:10:10;;;;;;;9.43;8.47;;;27.80;99.90;;;;;;5025468;28;21003;-69
2023/05/21 09:12:36;;;;;;;9.63;8.83;;;27.40;99.90;;;;;;5024552;28;21059;-70
2023/05/21 09:15:03;;;;;;;8.63;7.83;;;26.90;99.90;;;;;;5024676;28;20528;-67
2023/05/21 09:17:28;;;;;;;7.93;7.33;;;27.00;99.90;;;;;;5025961;28;20690;-68
2023/05/21 09:20:14;;;;;;;9.47;8.67;;;27.10;99.90;;;;;;5024819;28;20428;-70
2023/05/21 09:22:48;;;;;;;9.20;8.40;;;27.40;99.90;;;;;;5019474;28;20180;-70
2023/05/21 09:25:16;;;;;;;9.30;8.37;;;27.40;99.90;;;;;;5019235;28;20627;-69
2023/05/21 09:27:42;;;;;;;9.03;8.23;;;26.80;99.90;;;;;;5008414;28;20557;-68
2023/05/21 09:30:12;;;;;;;8.00;7.30;;;26.70;99.90;;;;;;5007886;28;20419;-69
2023/05/21 09:32:39;;;;;;;10.33;8.17;;;26.90;99.90;;;;;;5013874;28;20462;-69
2023/05/21 09:35:10;;;;;;;8.97;8.17;;;27.10;99.90;;;;;;5004982;28;20790;-68
2023/05/21 09:37:43;;;;;;;8.33;7.60;;;27.30;99.90;;;;;;4997455;28;20430;-68
2023/05/21 09:40:10;;;;;;;8.30;7.40;;;26.70;99.90;;;;;;4996533;28;20510;-70
2023/05/21 09:42:37;;;;;;;7.67;6.10;;;26.80;99.90;;;;;;5013714;28;20496;-68
2023/05/21 09:45:03;;;;;;;7.57;6.87;;;27.20;99.90;;;;;;5010522;28;20500;-69
2023/05/21 09:47:29;;;;;;;8.37;7.53;;;27.30;99.90;;;;;;5012673;28;20858;-71
2023/05/21 09:49:57;;;;;;;9.23;6.87;;;27.70;99.90;;;;;;5008042;28;20415;-69
2023/05/21 09:52:27;;;;;;;7.97;7.27;;;28.20;99.90;;;;;;4999727;28;20561;-69
2023/05/21 09:54:52;;;;;;;8.40;7.60;;;28.20;99.90;;;;;;5000608;28;20420;-69
2023/05/21 09:57:25;;;;;;;8.47;7.77;;;27.60;99.90;;;;;;5000053;28;20431;-68
2023/05/21 09:59:51;;;;;;;8.83;7.20;;;27.30;99.90;;;;;;5013481;28;20182;-67
2023/05/21 10:02:21;;;;;;;8.37;7.30;;;27.30;99.90;;;;;;5007971;28;20792;-68
2023/05/21 10:04:50;;;;;;;8.93;8.07;;;27.30;99.90;;;;;;5012510;28;20176;-68
2023/05/21 10:07:24;;;;;;;7.83;7.13;;;27.00;99.90;;;;;;5001201;28;21278;-69
2023/05/21 10:09:56;;;;;;;8.20;7.40;;;26.70;99.90;;;;;;4999125;28;20936;-69
2023/05/21 10:12:23;;;;;;;9.90;7.93;;;26.40;99.90;;;;;;5005428;28;20508;-69
2023/05/21 10:15:21;;;;;;;8.87;7.97;;;26.40;99.90;;;;;;5004040;28;20471;-68
2023/05/21 10:17:48;;;;;;;8.73;8.00;;;26.40;99.90;;;;;;4995542;28;20469;-68
2023/05/21 10:20:13;;;;;;;7.70;7.10;;;26.20;99.90;;;;;;5014873;28;20420;-70
2023/05/21 10:22:40;;;;;;;9.10;6.90;;;26.30;99.90;;;;;;4993297;28;20919;-68
2023/05/21 10:25:07;;;;;;;7.30;6.70;;;26.40;99.90;;;;;;5001179;28;20181;-69
2023/05/21 10:27:34;;;;;;;8.60;7.70;;;26.20;99.90;;;;;;5001968;28;20507;-69
2023/05/21 10:30:01;;;;;;;7.73;7.03;;;26.20;99.90;;;;;;5002511;28;20417;-72
2023/05/21 10:32:27;;;;;;;12.37;8.40;;;26.20;99.90;;;;;;5008706;28;20513;-70
2023/05/21 10:34:53;;;;;;;7.57;6.90;;;26.30;99.90;;;;;;5002315;28;20825;-70
2023/05/21 10:37:21;;;;;;;8.40;7.50;;;26.20;99.90;;;;;;5001239;28;20640;-69
2023/05/21 10:39:48;;;;;;;7.23;6.63;;;26.30;99.90;;;;;;4997565;28;20409;-70
2023/05/21 10:42:23;;;;;;;8.53;7.73;;;26.30;99.90;;;;;;5004171;28;20483;-72
2023/05/21 10:45:04;;;;;;;9.10;7.27;;;26.40;99.90;;;;;;5002196;28;20837;-68
2023/05/21 10:47:35;;;;;;;8.10;7.00;;;26.40;99.90;;;;;;5009209;28;20435;-68
2023/05/21 10:50:20;;;;;;;8.40;7.23;;;26.30;99.90;;;;;;5005692;28;20436;-68
2023/05/21 10:53:06;;;;;;;7.80;6.60;;;26.30;99.90;;;;;;4999621;28;20947;-68
2023/05/21 10:55:47;;;;;;;8.20;7.13;;;26.20;99.90;;;;;;5001341;28;20959;-70
2023/05/21 10:58:46;;;;;;;11.80;7.27;;;26.20;99.90;;;;;;5000119;28;20443;-68
2023/05/21 11:01:12;;;;;;;7.67;6.77;;;26.30;99.90;;;;;;5006350;28;20417;-70
2023/05/21 11:03:38;;;;;;;7.93;7.00;;;26.40;99.90;;;;;;5010302;28;20783;-68
2023/05/21 11:06:05;;;;;;;7.30;6.57;;;26.30;99.90;;;;;;4996342;28;20424;-69
2023/05/21 11:08:34;;;;;;;6.40;5.80;;;26.40;99.90;;;;;;5005703;28;20195;-69
2023/05/21 11:11:01;;;;;;;6.50;6.00;;;26.50;99.90;;;;;;4997820;28;20457;-71
2023/05/21 11:13:31;;;;;;;6.53;6.03;;;26.70;99.90;;;;;;5004243;28;20463;-68
2023/05/21 11:16:06;;;;;;;6.90;6.20;;;26.70;99.90;;;;;;5003677;28;20834;-69
2023/05/21 11:18:36;;;;;;;6.43;5.80;;;26.60;99.90;;;;;;5017936;28;20484;-71
2023/05/21 11:21:07;;;;;;;6.80;6.10;;;26.50;99.90;;;;;;5004988;28;20910;-73
2023/05/21 11:24:01;;;;;;;7.47;6.87;;;26.50;99.90;;;;;;4998596;28;20933;-68
2023/05/21 11:26:51;;;;;;;9.23;6.77;;;26.40;99.90;;;;;;5002213;28;20470;-70
2023/05/21 11:29:18;;;;;;;6.10;5.33;;;26.60;99.90;;;;;;5003473;28;20448;-71
2023/05/21 11:31:57;;;;;;;5.83;5.40;;;26.80;99.90;;;;;;5009200;28;20551;-69
2023/05/21 11:34:27;;;;;;;7.00;6.37;;;27.00;99.90;;;;;;5005918;28;20437;-69
2023/05/21 11:37:21;;;;;;;8.10;6.03;;;27.10;99.90;;;;;;4998626;28;20453;-70
2023/05/21 11:39:49;;;;;;;8.73;5.90;;;27.20;99.70;;;;;;4990101;28;20890;-70
2023/05/21 11:42:37;;;;;;;7.80;6.13;;;27.10;99.70;;;;;;5012122;28;20802;-71
2023/05/21 11:45:03;;;;;;;5.90;5.40;;;27.10;99.60;;;;;;5022892;28;20418;-69
2023/05/21 11:47:31;;;;;;;6.13;5.63;;;27.00;98.90;;;;;;5011531;28;20445;-68
2023/05/21 11:49:59;;;;;;;5.90;5.40;;;27.20;98.90;;;;;;5006566;28;22222;-68
2023/05/21 11:52:25;;;;;;;6.53;5.17;;;27.10;99.30;;;;;;5024276;28;20818;-68
2023/05/21 11:54:54;;;;;;;6.50;5.90;;;27.10;99.00;;;;;;5013709;28;20440;-71
2023/05/21 11:57:20;;;;;;;6.70;6.10;;;27.20;98.60;;;;;;5011246;28;20438;-71
2023/05/21 11:59:48;;;;;;;5.87;5.27;;;27.00;98.90;;;;;;4994673;28;20450;-69
2023/05/21 12:02:18;;;;;;;6.00;5.20;;;26.90;98.60;;;;;;5019706;28;20977;-72
2023/05/21 12:04:45;;;;;;;6.20;5.60;;;26.90;98.70;;;;;;5024117;28;20404;-70
2023/05/21 12:07:13;;;;;;;5.30;4.80;;;27.10;98.50;;;;;;5020689;28;20437;-69
2023/05/21 12:09:43;;;;;;;5.87;5.23;;;27.30;98.20;;;;;;5013965;28;21060;-70
2023/05/21 12:12:10;;;;;;;6.90;5.20;;;27.20;98.20;;;;;;5025361;28;20927;-71
2023/05/21 12:14:36;;;;;;;6.93;5.70;;;27.10;97.80;;;;;;5025297;28;20475;-71
2023/05/21 12:17:03;;;;;;;6.43;5.60;;;27.20;97.90;;;;;;5026145;28;20979;-68
2023/05/21 12:19:35;;;;;;;6.03;4.90;;;27.30;98.20;;;;;;5025286;28;20218;-69
2023/05/21 12:22:02;;;;;;;5.50;4.80;;;27.40;97.70;;;;;;5025692;28;20504;-69
2023/05/21 12:24:28;;;;;;;6.13;5.53;;;27.40;97.40;;;;;;5024678;28;20487;-68
2023/05/21 12:26:54;;;;;;;7.00;6.40;;;27.20;97.40;;;;;;5026892;28;20452;-69
2023/05/21 12:29:22;;;;;;;5.97;5.40;;;27.20;97.30;;;;;;5019429;28;20468;-68
2023/05/21 12:31:48;;;;;;;5.40;4.90;;;27.10;97.00;;;;;;5028967;28;20415;-69
2023/05/21 12:34:17;;;;;;;5.83;4.70;;;26.90;97.30;;;;;;5022466;28;20432;-68
2023/05/21 12:36:47;;;;;;;6.20;5.60;;;26.80;97.30;;;;;;5025765;28;20440;-68